createdAt,value
2022-10-22T02:47:02.461Z,13.63
2022-10-22T02:48:03.826Z,13.63
2022-10-22T02:49:04.205Z,13.63
2022-10-22T02:50:07.871Z,13.62
2022-10-22T02:51:04.919Z,13.62
2022-10-22T02:52:05.272Z,13.62
2022-10-22T02:53:05.660Z,13.65
2022-10-22T02:54:06.009Z,13.62
2022-10-22T02:55:06.450Z,13.60
2022-10-22T02:56:06.717Z,13.59
2022-10-22T02:57:07.201Z,13.59
2022-10-22T02:58:07.429Z,13.57
2022-10-22T02:59:07.768Z,13.62
2022-10-22T03:00:08.158Z,13.63
2022-10-22T03:01:10.355Z,13.67
2022-10-22T03:02:08.855Z,13.65
2022-10-22T03:03:09.215Z,13.71
2022-10-22T03:04:09.591Z,13.71
2022-10-22T03:05:09.942Z,13.70
2022-10-22T03:06:10.285Z,13.68
2022-10-22T03:07:10.648Z,13.70
2022-10-22T03:08:11.006Z,13.68
2022-10-22T03:09:11.363Z,13.68
2022-10-22T03:10:11.724Z,13.68
2022-10-22T03:11:12.070Z,13.67
2022-10-22T03:12:12.426Z,13.65
2022-10-22T03:13:12.780Z,13.63
2022-10-22T03:14:13.115Z,13.60
2022-10-22T03:15:13.526Z,13.59
2022-10-22T03:16:13.863Z,13.60
2022-10-22T03:17:14.206Z,13.57
2022-10-22T03:18:14.557Z,13.56
2022-10-22T03:19:14.932Z,13.57
2022-10-22T03:20:15.266Z,13.56
2022-10-22T03:21:15.686Z,13.56
2022-10-22T03:22:15.974Z,13.53
2022-10-22T03:23:16.318Z,13.52
2022-10-22T03:24:16.673Z,13.53
2022-10-22T03:25:17.041Z,13.54
2022-10-22T03:26:17.376Z,13.54
2022-10-22T03:27:17.774Z,13.54
2022-10-22T03:28:18.109Z,13.52
2022-10-22T03:29:18.470Z,13.50
2022-10-22T03:30:18.863Z,13.50
2022-10-22T03:31:19.171Z,13.52
2022-10-22T03:32:19.517Z,13.49
2022-10-22T03:33:19.878Z,13.49
2022-10-22T03:34:20.234Z,13.46
2022-10-22T03:35:20.627Z,13.50
2022-10-22T03:36:20.979Z,13.47
2022-10-22T03:37:21.317Z,13.49
2022-10-22T03:38:21.667Z,13.47
2022-10-22T03:39:22.024Z,13.49
2022-10-22T03:40:22.969Z,13.44
2022-10-22T03:41:22.729Z,13.42
2022-10-22T03:42:23.112Z,13.42
2022-10-22T03:43:23.432Z,13.42
2022-10-22T03:44:23.791Z,13.42
2022-10-22T03:45:24.190Z,13.41
2022-10-22T03:46:24.553Z,13.39
2022-10-22T03:47:24.863Z,13.38
2022-10-22T03:48:25.219Z,13.38
2022-10-22T03:49:25.600Z,13.38
2022-10-22T03:50:25.995Z,13.37
2022-10-22T03:51:26.348Z,13.33
2022-10-22T03:52:26.703Z,13.33
2022-10-22T03:53:27.066Z,13.35
2022-10-22T03:54:27.486Z,13.31
2022-10-22T03:55:27.846Z,13.28
2022-10-22T03:56:28.191Z,13.30
2022-10-22T03:57:28.543Z,13.30
2022-10-22T03:58:28.896Z,13.31
2022-10-22T03:59:29.271Z,13.28
2022-10-22T04:00:29.631Z,13.27
2022-10-22T04:01:30.090Z,13.25
2022-10-22T04:02:30.362Z,13.27
2022-10-22T04:03:30.732Z,13.23
2022-10-22T04:04:31.085Z,13.23
2022-10-22T04:05:31.472Z,13.20
2022-10-22T04:06:31.783Z,13.23
2022-10-22T04:07:32.138Z,13.19
2022-10-22T04:08:32.586Z,13.20
2022-10-22T04:09:32.860Z,13.19
2022-10-22T04:10:33.233Z,13.16
2022-10-22T04:11:33.566Z,13.18
2022-10-22T04:12:33.920Z,13.18
2022-10-22T04:13:34.289Z,13.16
2022-10-22T04:14:34.634Z,13.13
2022-10-22T04:15:35.084Z,13.13
2022-10-22T04:16:35.368Z,13.09
2022-10-22T04:17:35.712Z,13.09
2022-10-22T04:18:36.077Z,13.09
2022-10-22T04:19:36.453Z,13.11
2022-10-22T04:20:36.832Z,13.09
2022-10-22T04:21:37.161Z,13.09
2022-10-22T04:22:37.494Z,13.05
2022-10-22T04:23:37.873Z,13.04
2022-10-22T04:24:38.337Z,13.03
2022-10-22T04:25:38.582Z,12.97
2022-10-22T04:26:38.932Z,12.94
2022-10-22T04:27:39.691Z,12.94
2022-10-22T04:28:39.653Z,12.93
2022-10-22T04:29:40.003Z,12.94
2022-10-22T04:30:40.381Z,12.94
2022-10-22T04:31:40.758Z,12.91
2022-10-22T04:32:41.150Z,12.86
2022-10-22T04:33:41.476Z,12.86
2022-10-22T04:34:41.831Z,12.87
2022-10-22T04:35:42.196Z,12.82
2022-10-22T04:36:42.537Z,12.85
2022-10-22T04:37:43.186Z,12.85
2022-10-22T04:38:43.250Z,12.82
2022-10-22T04:39:43.602Z,12.83
2022-10-22T04:40:43.996Z,12.82
2022-10-22T04:41:44.307Z,12.83
2022-10-22T04:42:44.688Z,12.83
2022-10-22T04:43:45.031Z,12.83
2022-10-22T04:44:45.380Z,12.80
2022-10-22T04:45:45.760Z,12.79
2022-10-22T04:46:46.126Z,12.79
2022-10-22T04:47:46.468Z,12.79
2022-10-22T04:48:46.810Z,12.79
2022-10-22T04:49:47.162Z,12.79
2022-10-22T04:50:47.528Z,12.78
2022-10-22T04:51:47.915Z,12.79
2022-10-22T04:52:48.225Z,12.79
2022-10-22T04:53:48.586Z,12.78
2022-10-22T04:54:48.943Z,12.79
2022-10-22T04:55:49.382Z,12.76
2022-10-22T04:56:49.668Z,12.75
2022-10-22T04:57:50.019Z,12.78
2022-10-22T04:58:50.371Z,12.75
2022-10-22T04:59:50.723Z,12.76
2022-10-22T05:00:51.122Z,12.78
2022-10-22T05:01:51.445Z,12.78
2022-10-22T05:02:51.817Z,12.75
2022-10-22T05:03:52.166Z,12.75
2022-10-22T05:04:52.527Z,12.75
2022-10-22T05:05:52.961Z,12.75
2022-10-22T05:06:53.235Z,12.73
2022-10-22T05:07:53.599Z,12.72
2022-10-22T05:08:53.999Z,12.75
2022-10-22T05:09:54.306Z,12.76
2022-10-22T05:10:54.668Z,12.76
2022-10-22T05:11:55.021Z,12.78
2022-10-22T05:12:55.382Z,12.78
2022-10-22T05:13:55.720Z,12.79
2022-10-22T05:14:56.099Z,12.80
2022-10-22T05:15:56.466Z,12.82
2022-10-22T05:16:56.815Z,12.83
2022-10-22T05:17:57.173Z,12.83
2022-10-22T05:18:57.524Z,12.80
2022-10-22T05:19:57.910Z,12.82
2022-10-22T05:20:58.250Z,12.82
2022-10-22T05:21:58.645Z,12.83
2022-10-22T05:22:58.980Z,12.83
2022-10-22T05:23:59.330Z,12.83
2022-10-22T05:24:59.699Z,12.85
2022-10-22T05:26:00.095Z,12.85
2022-10-22T05:27:00.454Z,12.85
2022-10-22T05:28:00.824Z,12.85
2022-10-22T05:29:00.958Z,12.87
2022-10-22T05:30:01.130Z,12.85
2022-10-22T05:31:01.322Z,12.86
2022-10-22T05:32:01.465Z,12.87
2022-10-22T05:33:01.749Z,12.86
2022-10-22T05:34:01.922Z,12.85
2022-10-22T05:35:02.095Z,12.86
2022-10-22T05:36:02.273Z,12.86
2022-10-22T05:37:02.491Z,12.85
2022-10-22T05:38:02.719Z,12.86
2022-10-22T05:39:02.889Z,12.86
2022-10-22T05:40:18.928Z,12.86
2022-10-22T05:41:03.483Z,12.85
2022-10-22T05:42:03.639Z,12.87
2022-10-22T05:43:03.818Z,12.87
2022-10-22T05:44:04.090Z,12.83
2022-10-22T05:45:04.303Z,12.82
2022-10-22T05:46:04.469Z,12.82
2022-10-22T05:47:04.786Z,12.82
2022-10-22T05:48:05.055Z,12.83
2022-10-22T05:49:05.391Z,12.83
2022-10-22T05:50:05.618Z,12.80
2022-10-22T05:51:05.800Z,12.82
2022-10-22T05:52:06.081Z,12.80
2022-10-22T05:53:06.267Z,12.76
2022-10-22T05:54:06.576Z,12.76
2022-10-22T05:55:06.765Z,12.78
2022-10-22T05:56:07.064Z,12.76
2022-10-22T05:57:07.328Z,12.75
2022-10-22T05:58:07.479Z,12.76
2022-10-22T05:59:07.820Z,12.76
2022-10-22T06:00:10.562Z,12.73
2022-10-22T06:01:08.427Z,12.75
2022-10-22T06:02:08.709Z,12.73
2022-10-22T06:03:08.849Z,12.72
2022-10-22T06:04:09.015Z,12.68
2022-10-22T06:05:09.418Z,12.67
2022-10-22T06:06:09.621Z,12.67
2022-10-22T06:07:09.806Z,12.67
2022-10-22T06:08:10.086Z,12.67
2022-10-22T06:09:10.365Z,12.67
2022-10-22T06:10:10.462Z,12.67
2022-10-22T06:11:10.661Z,12.67
2022-10-22T06:12:10.934Z,12.65
2022-10-22T06:13:11.100Z,12.65
2022-10-22T06:14:11.298Z,12.64
2022-10-22T06:15:11.479Z,12.68
2022-10-22T06:16:11.649Z,12.65
2022-10-22T06:17:11.813Z,12.65
2022-10-22T06:18:11.991Z,12.65
2022-10-22T06:19:12.145Z,12.65
2022-10-22T06:20:12.330Z,12.65
2022-10-22T06:21:12.558Z,12.67
2022-10-22T06:22:12.696Z,12.68
2022-10-22T06:23:12.856Z,12.68
2022-10-22T06:24:13.030Z,12.68
2022-10-22T06:25:13.205Z,12.72
2022-10-22T06:26:13.396Z,12.70
2022-10-22T06:27:13.572Z,12.72
2022-10-22T06:28:13.767Z,12.75
2022-10-22T06:29:13.902Z,12.79
2022-10-22T06:30:14.097Z,12.78
2022-10-22T06:31:14.269Z,12.76
2022-10-22T06:32:14.598Z,12.76
2022-10-22T06:33:14.735Z,12.76
2022-10-22T06:34:14.921Z,12.78
2022-10-22T06:35:15.111Z,12.80
2022-10-22T06:36:15.308Z,12.80
2022-10-22T06:37:15.460Z,12.80
2022-10-22T06:38:15.749Z,12.80
2022-10-22T06:39:15.975Z,12.82
2022-10-22T06:40:16.129Z,12.82
2022-10-22T06:41:16.333Z,12.83
2022-10-22T06:42:17.367Z,12.83
2022-10-22T06:43:16.789Z,12.86
2022-10-22T06:44:17.006Z,12.86
2022-10-22T06:45:17.150Z,12.86
2022-10-22T06:46:19.861Z,12.85
2022-10-22T06:47:17.532Z,12.85
2022-10-22T06:48:17.689Z,12.85
2022-10-22T06:49:17.884Z,12.86
2022-10-22T06:50:18.048Z,12.85
2022-10-22T06:51:18.274Z,12.85
2022-10-22T06:52:18.431Z,12.85
2022-10-22T06:53:18.631Z,12.85
2022-10-22T06:54:18.817Z,12.85
2022-10-22T06:55:19.002Z,12.90
2022-10-22T06:56:19.253Z,12.90
2022-10-22T06:57:19.385Z,12.90
2022-10-22T06:58:19.559Z,12.87
2022-10-22T06:59:19.760Z,12.90
2022-10-22T07:00:20.012Z,12.91
2022-10-22T07:01:20.293Z,12.93
2022-10-22T07:02:20.298Z,12.93
2022-10-22T07:03:20.532Z,12.91
2022-10-22T07:04:20.692Z,12.93
2022-10-22T07:05:20.881Z,12.93
2022-10-22T07:06:21.081Z,12.94
2022-10-22T07:07:21.277Z,12.94
2022-10-22T07:08:21.446Z,12.94
2022-10-22T07:09:21.652Z,12.97
2022-10-22T07:10:22.272Z,12.98
2022-10-22T07:11:22.214Z,13.03
2022-10-22T07:12:22.224Z,13.04
2022-10-22T07:13:22.453Z,13.03
2022-10-22T07:14:22.596Z,13.09
2022-10-22T07:15:22.789Z,13.12
2022-10-22T07:16:25.650Z,13.13
2022-10-22T07:17:23.215Z,13.19
2022-10-22T07:18:23.475Z,13.22
2022-10-22T07:19:23.581Z,13.28
2022-10-22T07:20:23.818Z,13.35
2022-10-22T07:21:23.982Z,13.37
2022-10-22T07:22:24.150Z,13.42
2022-10-22T07:23:24.348Z,13.42
2022-10-22T07:24:24.557Z,13.49
2022-10-22T07:25:24.751Z,13.52
2022-10-22T07:26:24.972Z,13.57
2022-10-22T07:27:25.117Z,13.62
2022-10-22T07:28:25.311Z,13.68
2022-10-22T07:29:25.511Z,13.70
2022-10-22T07:30:25.704Z,13.71
2022-10-22T07:31:25.948Z,13.74
2022-10-22T07:32:26.088Z,13.75
2022-10-22T07:33:26.297Z,13.77
2022-10-22T07:34:26.507Z,13.78
2022-10-22T07:35:26.711Z,13.81
2022-10-22T07:36:26.888Z,13.89
2022-10-22T07:37:27.062Z,13.90
2022-10-22T07:38:27.263Z,13.93
2022-10-22T07:39:27.476Z,13.97
2022-10-22T07:40:27.647Z,14.04
2022-10-22T07:41:27.853Z,14.07
2022-10-22T07:43:28.214Z,14.12
2022-10-22T07:44:28.439Z,14.15
2022-10-22T07:45:28.597Z,14.20
2022-10-22T07:46:28.811Z,14.23
2022-10-22T07:47:28.969Z,14.25
2022-10-22T07:48:29.181Z,14.29
2022-10-22T07:49:29.340Z,14.29
2022-10-22T07:50:29.541Z,14.29
2022-10-22T07:51:29.769Z,14.35
2022-10-22T07:52:29.934Z,14.36
2022-10-22T07:53:30.130Z,14.41
2022-10-22T07:54:30.342Z,14.43
2022-10-22T07:55:30.518Z,14.47
2022-10-22T07:56:30.747Z,14.48
2022-10-22T07:57:30.856Z,14.51
2022-10-22T07:58:31.052Z,14.55
2022-10-22T07:59:31.246Z,14.54
2022-10-22T08:00:31.474Z,14.54
2022-10-22T08:01:31.734Z,14.53
2022-10-22T08:02:31.859Z,14.55
2022-10-22T08:03:32.051Z,14.55
2022-10-22T08:04:32.216Z,14.59
2022-10-22T08:05:32.415Z,14.54
2022-10-22T08:06:32.616Z,14.54
2022-10-22T08:07:32.810Z,14.54
2022-10-22T08:08:33.021Z,14.58
2022-10-22T08:09:33.165Z,14.59
2022-10-22T08:10:33.365Z,14.60
2022-10-22T08:11:33.601Z,14.65
2022-10-22T08:12:33.763Z,14.65
2022-10-22T08:13:33.968Z,14.72
2022-10-22T08:14:34.135Z,14.69
2022-10-22T08:15:34.411Z,14.73
2022-10-22T08:16:34.537Z,14.73
2022-10-22T08:17:34.701Z,14.78
2022-10-22T08:18:34.901Z,14.84
2022-10-22T08:19:35.093Z,14.81
2022-10-22T08:20:35.247Z,14.86
2022-10-22T08:21:35.464Z,14.85
2022-10-22T08:22:35.670Z,14.88
2022-10-22T08:23:35.805Z,14.92
2022-10-22T08:24:36.033Z,14.84
2022-10-22T08:25:36.217Z,14.84
2022-10-22T08:26:36.440Z,14.85
2022-10-22T08:27:36.598Z,14.88
2022-10-22T08:28:36.759Z,14.81
2022-10-22T08:29:36.982Z,14.82
2022-10-22T08:30:37.158Z,14.84
2022-10-22T08:31:37.355Z,14.88
2022-10-22T08:32:37.518Z,14.96
2022-10-22T08:33:37.727Z,15.00
2022-10-22T08:34:37.948Z,14.99
2022-10-22T08:35:38.121Z,15.00
2022-10-22T08:36:38.330Z,15.00
2022-10-22T08:37:38.810Z,15.03
2022-10-22T08:38:38.685Z,15.09
2022-10-22T08:39:38.881Z,15.11
2022-10-22T08:40:39.162Z,15.11
2022-10-22T08:41:39.288Z,15.17
2022-10-22T08:42:40.022Z,15.19
2022-10-22T08:43:39.651Z,15.25
2022-10-22T08:44:39.849Z,15.31
2022-10-22T08:45:40.047Z,15.36
2022-10-22T08:46:40.302Z,15.40
2022-10-22T08:47:40.448Z,15.46
2022-10-22T08:48:40.643Z,15.49
2022-10-22T08:49:42.157Z,15.55
2022-10-22T08:50:41.071Z,15.54
2022-10-22T08:51:41.226Z,15.61
2022-10-22T08:52:41.633Z,15.64
2022-10-22T08:53:41.596Z,15.68
2022-10-22T08:54:41.785Z,15.73
2022-10-22T08:55:42.009Z,15.80
2022-10-22T08:56:42.250Z,15.83
2022-10-22T08:57:42.371Z,15.90
2022-10-22T08:58:42.552Z,15.95
2022-10-22T08:59:42.732Z,15.97
2022-10-22T09:00:42.918Z,16.02
2022-10-22T09:01:43.146Z,16.09
2022-10-22T09:02:43.805Z,16.05
2022-10-22T09:03:43.511Z,16.10
2022-10-22T09:04:43.739Z,16.12
2022-10-22T09:05:43.949Z,16.10
2022-10-22T09:06:44.101Z,16.13
2022-10-22T09:07:44.929Z,16.12
2022-10-22T09:08:44.545Z,16.16
2022-10-22T09:09:44.658Z,16.17
2022-10-22T09:10:44.854Z,16.21
2022-10-22T09:11:45.083Z,16.31
2022-10-22T09:12:45.231Z,16.33
2022-10-22T09:13:45.445Z,16.36
2022-10-22T09:14:45.639Z,16.41
2022-10-22T09:15:47.367Z,16.42
2022-10-22T09:16:46.058Z,16.50
2022-10-22T09:17:46.250Z,16.54
2022-10-22T09:18:46.433Z,16.54
2022-10-22T09:19:46.645Z,16.50
2022-10-22T09:20:46.842Z,16.51
2022-10-22T09:21:47.073Z,16.53
2022-10-22T09:22:47.214Z,16.60
2022-10-22T09:23:47.418Z,16.57
2022-10-22T09:24:47.594Z,16.58
2022-10-22T09:25:47.799Z,16.56
2022-10-22T09:26:48.005Z,16.53
2022-10-22T09:27:48.171Z,16.60
2022-10-22T09:28:48.421Z,16.64
2022-10-22T09:29:48.585Z,16.68
2022-10-22T09:30:48.845Z,16.68
2022-10-22T09:31:49.026Z,16.64
2022-10-22T09:32:49.151Z,16.66
2022-10-22T09:33:49.333Z,16.71
2022-10-22T09:34:49.516Z,16.75
2022-10-22T09:35:49.685Z,16.83
2022-10-22T09:36:49.887Z,16.86
2022-10-22T09:37:50.081Z,16.91
2022-10-22T09:38:50.239Z,16.99
2022-10-22T09:39:50.438Z,17.08
2022-10-22T09:40:50.641Z,17.16
2022-10-22T09:41:50.855Z,17.19
2022-10-22T09:42:51.048Z,17.22
2022-10-22T09:43:51.250Z,17.27
2022-10-22T09:44:51.466Z,17.33
2022-10-22T09:45:51.670Z,17.38
2022-10-22T09:46:51.841Z,17.42
2022-10-22T09:48:01.823Z,17.46
2022-10-22T09:48:52.200Z,17.48
2022-10-22T09:49:52.391Z,17.52
2022-10-22T09:50:52.616Z,17.65
2022-10-22T09:51:52.830Z,17.71
2022-10-22T09:52:52.980Z,17.85
2022-10-22T09:53:53.162Z,18.07
2022-10-22T09:54:53.366Z,18.15
2022-10-22T09:55:53.583Z,18.23
2022-10-22T09:56:53.787Z,18.35
2022-10-22T09:57:53.892Z,18.44
2022-10-22T09:58:54.097Z,18.59
2022-10-22T09:59:54.296Z,18.78
2022-10-22T10:00:54.515Z,19.04
2022-10-22T10:01:54.747Z,19.30
2022-10-22T10:02:54.911Z,19.22
2022-10-22T10:03:55.084Z,19.02
2022-10-22T10:04:55.436Z,18.83
2022-10-22T10:05:55.447Z,18.93
2022-10-22T10:06:55.706Z,18.88
2022-10-22T10:07:55.858Z,19.07
2022-10-22T10:08:56.082Z,19.08
2022-10-22T10:09:56.235Z,18.93
2022-10-22T10:10:56.520Z,19.04
2022-10-22T10:11:56.597Z,18.93
2022-10-22T10:12:56.767Z,18.74
2022-10-22T10:13:57.014Z,18.66
2022-10-22T10:14:57.127Z,18.55
2022-10-22T10:15:57.343Z,18.58
2022-10-22T10:16:57.551Z,18.53
2022-10-22T10:17:57.724Z,18.28
2022-10-22T10:18:57.936Z,18.19
2022-10-22T10:20:01.460Z,18.18
2022-10-22T10:20:58.329Z,18.38
2022-10-22T10:21:58.610Z,18.68
2022-10-22T10:22:58.720Z,18.89
2022-10-22T10:23:58.925Z,18.96
2022-10-22T10:24:59.105Z,18.52
2022-10-22T10:25:59.298Z,18.58
2022-10-22T10:26:59.475Z,18.63
2022-10-22T10:27:59.646Z,18.55
2022-10-22T10:28:59.840Z,18.43
2022-10-22T10:30:00.040Z,18.29
2022-10-22T10:31:00.335Z,18.16
2022-10-22T10:32:00.428Z,18.18
2022-10-22T10:33:00.594Z,18.07
2022-10-22T10:34:00.812Z,18.05
2022-10-22T10:35:00.973Z,18.23
2022-10-22T10:36:01.158Z,18.44
2022-10-22T10:37:01.380Z,18.70
2022-10-22T10:38:01.641Z,18.86
2022-10-22T12:20:52.177Z,18.74
2022-10-22T12:21:52.963Z,18.84
2022-10-22T12:22:53.180Z,18.75
2022-10-22T12:23:53.363Z,18.66
2022-10-22T12:24:53.549Z,18.71
2022-10-22T12:25:53.719Z,18.74
2022-10-22T12:26:53.907Z,18.80
2022-10-22T12:27:54.119Z,18.75
2022-10-22T12:28:54.272Z,18.80
2022-10-22T12:29:54.456Z,18.86
2022-10-22T12:30:54.643Z,18.83
2022-10-22T12:31:54.816Z,18.88
2022-10-22T12:32:55.023Z,19.00
2022-10-22T12:33:55.211Z,19.00
2022-10-22T12:34:55.407Z,18.90
2022-10-22T12:35:55.600Z,18.98
2022-10-22T12:36:55.791Z,18.89
2022-10-22T12:37:55.998Z,18.96
2022-10-22T12:38:56.190Z,19.04
2022-10-22T12:39:56.381Z,19.09
2022-10-22T12:40:56.571Z,19.08
2022-10-22T12:41:56.769Z,18.88
2022-10-22T12:42:57.025Z,18.93
2022-10-22T12:43:57.149Z,18.90
2022-10-22T12:44:57.341Z,18.98
2022-10-22T12:45:57.568Z,18.92
2022-10-22T12:46:57.723Z,18.95
2022-10-22T12:47:57.929Z,19.09
2022-10-22T12:48:58.123Z,18.98
2022-10-22T12:49:58.309Z,18.93
2022-10-22T12:50:58.496Z,18.95
2022-10-22T12:51:58.697Z,19.08
2022-10-22T12:52:58.884Z,19.12
2022-10-22T12:53:59.051Z,19.07
2022-10-22T12:54:59.242Z,18.96
2022-10-22T12:55:59.446Z,18.98
2022-10-22T12:56:59.647Z,19.04
2022-10-22T12:57:59.859Z,19.12
2022-10-22T12:59:00.032Z,19.27
2022-10-22T13:01:00.412Z,19.15
2022-10-22T13:02:00.590Z,19.36
2022-10-22T13:03:00.809Z,19.26
2022-10-22T13:04:00.987Z,19.22
2022-10-22T13:05:01.189Z,19.31
2022-10-22T13:06:01.386Z,19.30
2022-10-22T13:07:01.591Z,19.26
2022-10-22T13:08:01.810Z,19.33
2022-10-22T13:09:02.019Z,19.34
2022-10-22T13:10:02.139Z,19.27
2022-10-22T13:11:02.330Z,19.08
2022-10-22T13:12:02.527Z,19.08
2022-10-22T13:13:02.740Z,19.00
2022-10-22T13:14:02.912Z,18.99
2022-10-22T13:15:03.114Z,18.93
2022-10-22T13:16:03.304Z,18.95
2022-10-22T13:17:03.484Z,19.07
2022-10-22T13:18:03.698Z,19.21
2022-10-22T13:19:03.850Z,19.31
2022-10-22T13:20:04.080Z,19.64
2022-10-22T13:21:04.245Z,19.79
2022-10-22T13:22:04.441Z,19.73
2022-10-22T13:23:04.651Z,19.62
2022-10-22T13:24:04.801Z,19.34
2022-10-22T13:25:05.001Z,19.40
2022-10-22T13:26:05.205Z,19.36
2022-10-22T13:27:05.397Z,19.40
2022-10-22T13:28:05.606Z,19.37
2022-10-22T13:29:05.765Z,19.33
2022-10-22T13:30:05.960Z,19.44
2022-10-22T13:31:06.165Z,19.41
2022-10-22T13:32:06.365Z,19.58
2022-10-22T13:33:06.680Z,19.56
2022-10-22T13:34:09.957Z,19.54
2022-10-22T13:35:06.925Z,19.39
2022-10-22T13:36:07.077Z,19.39
2022-10-22T13:37:07.294Z,19.49
2022-10-22T13:38:07.508Z,19.31
2022-10-22T13:39:07.665Z,19.37
2022-10-22T13:40:11.000Z,19.45
2022-10-22T13:41:08.068Z,19.37
2022-10-22T13:42:08.263Z,19.34
2022-10-22T13:43:08.491Z,19.24
2022-10-22T13:44:08.669Z,19.49
2022-10-22T13:45:08.887Z,19.49
2022-10-22T13:46:09.110Z,19.63
2022-10-22T13:47:09.314Z,19.67
2022-10-22T13:48:09.515Z,19.74
2022-10-22T13:49:09.710Z,19.84
2022-10-22T13:50:09.882Z,19.74
2022-10-22T13:51:10.100Z,19.79
2022-10-22T13:52:10.300Z,19.69
2022-10-22T13:53:10.516Z,19.54
2022-10-22T13:54:10.676Z,19.40
2022-10-22T13:55:10.864Z,19.39
2022-10-22T13:56:11.056Z,19.27
2022-10-22T13:57:11.263Z,19.18
2022-10-22T13:58:11.475Z,19.12
2022-10-22T13:59:11.587Z,19.27
2022-10-22T14:00:11.781Z,19.51
2022-10-22T14:01:12.057Z,19.21
2022-10-22T14:02:12.147Z,18.99
2022-10-22T14:03:12.386Z,18.95
2022-10-22T14:04:12.536Z,18.95
2022-10-22T14:05:12.748Z,19.14
2022-10-22T14:06:12.897Z,18.95
2022-10-22T14:07:13.090Z,19.02
2022-10-22T14:08:13.294Z,19.11
2022-10-22T14:09:13.577Z,19.62
2022-10-22T14:10:13.658Z,19.48
2022-10-22T14:11:13.851Z,19.36
2022-10-22T14:12:14.044Z,19.08
2022-10-22T14:13:14.256Z,18.93
2022-10-22T14:14:14.514Z,18.96
2022-10-22T14:15:14.610Z,18.80
2022-10-22T14:16:14.761Z,18.63
2022-10-22T14:17:14.962Z,18.65
2022-10-22T14:18:15.134Z,18.65
2022-10-22T14:19:15.289Z,18.63
2022-10-22T14:20:15.486Z,18.52
2022-10-22T14:21:15.679Z,18.49
2022-10-22T14:22:15.870Z,18.50
2022-10-22T14:24:16.236Z,18.68
2022-10-22T14:25:16.427Z,18.74
2022-10-22T14:26:16.621Z,18.73
2022-10-22T14:27:16.809Z,18.83
2022-10-22T14:28:17.007Z,18.73
2022-10-22T14:29:17.206Z,18.74
2022-10-22T14:30:17.370Z,18.59
2022-10-22T14:31:17.569Z,18.66
2022-10-22T14:32:17.760Z,18.56
2022-10-22T14:33:17.983Z,18.58
2022-10-22T14:34:18.187Z,18.52
2022-10-22T14:35:18.344Z,18.50
2022-10-22T14:36:18.537Z,18.52
2022-10-22T14:37:18.736Z,18.47
2022-10-22T14:38:18.949Z,18.53
2022-10-22T14:39:19.120Z,18.52
2022-10-22T14:40:19.302Z,18.44
2022-10-22T14:41:19.493Z,18.47
2022-10-22T14:42:19.673Z,18.47
2022-10-22T14:43:19.885Z,18.45
2022-10-22T14:44:20.041Z,18.40
2022-10-22T14:45:20.236Z,18.35
2022-10-22T14:46:20.433Z,18.33
2022-10-22T14:47:20.658Z,18.33
2022-10-22T14:48:20.868Z,18.25
2022-10-22T14:49:21.024Z,18.25
2022-10-22T14:50:21.207Z,18.18
2022-10-22T14:51:21.425Z,18.18
2022-10-22T14:52:21.583Z,18.11
2022-10-22T14:53:21.927Z,18.07
2022-10-22T14:54:22.078Z,18.04
2022-10-22T14:55:22.269Z,18.01
2022-10-22T14:56:22.450Z,18.01
2022-10-22T14:57:22.633Z,18.00
2022-10-22T14:58:22.825Z,18.00
2022-10-22T14:59:22.975Z,17.95
2022-10-22T15:00:23.156Z,17.90
2022-10-22T15:01:29.343Z,17.90
2022-10-22T15:02:23.511Z,17.90
2022-10-22T15:03:23.743Z,17.87
2022-10-22T15:04:23.876Z,17.72
2022-10-22T15:05:24.063Z,17.59
2022-10-22T15:06:24.276Z,17.30
2022-10-22T15:07:24.471Z,17.08
2022-10-22T15:08:24.683Z,16.89
2022-10-22T15:09:24.834Z,16.76
2022-10-22T15:10:25.011Z,16.68
2022-10-22T15:11:25.774Z,16.58
2022-10-22T15:12:25.382Z,16.51
2022-10-22T15:13:25.586Z,16.42
2022-10-22T15:14:25.763Z,16.39
2022-10-22T15:15:30.489Z,16.38
2022-10-22T15:16:26.137Z,16.36
2022-10-22T15:17:26.313Z,16.35
2022-10-22T15:18:26.507Z,16.32
2022-10-22T15:19:26.679Z,16.29
2022-10-22T15:20:26.854Z,16.32
2022-10-22T15:21:27.021Z,16.32
2022-10-22T15:22:27.219Z,16.33
2022-10-22T15:23:27.411Z,16.36
2022-10-22T15:24:27.580Z,16.35
2022-10-22T15:25:27.753Z,16.36
2022-10-22T15:26:27.922Z,16.36
2022-10-22T15:27:28.122Z,16.36
2022-10-22T15:28:28.306Z,16.36
2022-10-22T15:29:28.471Z,16.38
2022-10-22T15:30:28.653Z,16.36
2022-10-22T15:31:28.830Z,16.38
2022-10-22T15:32:28.995Z,16.38
2022-10-22T15:33:29.170Z,16.41
2022-10-22T15:34:29.325Z,16.41
2022-10-22T15:35:29.529Z,16.42
2022-10-22T15:36:29.707Z,16.38
2022-10-22T15:37:29.900Z,16.38
2022-10-22T15:39:30.384Z,16.42
2022-10-22T15:40:30.555Z,16.43
2022-10-22T15:41:30.848Z,16.39
2022-10-22T15:42:31.162Z,16.38
2022-10-22T15:43:31.345Z,16.41
2022-10-22T15:44:31.531Z,16.41
2022-10-22T15:45:31.830Z,16.39
2022-10-22T15:46:34.685Z,16.39
2022-10-22T15:47:32.301Z,16.39
2022-10-22T15:48:32.627Z,16.39
2022-10-22T15:49:32.902Z,16.35
2022-10-22T15:50:33.228Z,16.36
2022-10-22T15:51:33.507Z,16.36
2022-10-22T15:52:33.797Z,16.36
2022-10-22T15:53:33.999Z,16.35
2022-10-22T15:54:34.180Z,16.36
2022-10-22T15:55:34.476Z,16.36
2022-10-22T15:56:34.785Z,16.36
2022-10-22T15:57:34.975Z,16.38
2022-10-22T15:58:35.278Z,16.36
2022-10-22T15:59:35.555Z,16.35
2022-10-22T16:00:35.846Z,16.33
2022-10-22T16:01:36.043Z,16.33
2022-10-22T16:02:36.340Z,16.31
2022-10-22T16:03:36.553Z,16.32
2022-10-22T16:04:36.715Z,16.31
2022-10-22T16:05:36.927Z,16.32
2022-10-22T16:06:37.047Z,16.32
2022-10-22T16:07:37.335Z,16.33
2022-10-22T16:08:37.677Z,16.33
2022-10-22T16:09:37.788Z,16.33
2022-10-22T16:10:37.971Z,16.35
2022-10-22T16:11:38.139Z,16.35
2022-10-22T16:12:38.420Z,16.33
2022-10-22T16:13:38.495Z,16.36
2022-10-22T16:14:38.658Z,16.36
2022-10-22T16:15:38.827Z,16.36
2022-10-22T16:16:38.997Z,16.39
2022-10-22T16:17:39.165Z,16.36
2022-10-22T16:18:39.351Z,16.33
2022-10-22T16:19:39.505Z,16.35
2022-10-22T16:20:39.673Z,16.33
2022-10-22T16:21:39.836Z,16.35
2022-10-22T16:22:40.454Z,16.35
2022-10-22T16:23:40.465Z,16.35
2022-10-22T16:24:40.608Z,16.36
2022-10-22T16:25:40.760Z,16.33
2022-10-22T16:26:41.057Z,16.33
2022-10-22T16:27:41.227Z,16.32
2022-10-22T16:28:41.415Z,16.32
2022-10-22T16:29:41.710Z,16.31
2022-10-22T16:30:41.865Z,16.31
2022-10-22T16:31:42.143Z,16.31
2022-10-22T16:32:42.622Z,16.29
2022-10-22T16:33:47.786Z,16.29
2022-10-22T16:34:42.808Z,16.28
2022-10-22T16:35:43.081Z,16.26
2022-10-22T16:36:43.285Z,16.31
2022-10-22T16:37:43.980Z,16.32
2022-10-22T16:38:43.743Z,16.35
2022-10-22T16:39:43.891Z,16.35
2022-10-22T16:40:44.268Z,16.32
2022-10-22T16:41:44.629Z,16.32
2022-10-22T16:42:44.993Z,16.31
2022-10-22T16:43:45.393Z,16.31
2022-10-22T16:44:45.729Z,16.28
2022-10-22T16:45:46.090Z,16.29
2022-10-22T16:46:46.462Z,16.26
2022-10-22T16:47:46.835Z,16.26
2022-10-22T16:48:47.219Z,16.24
2022-10-22T16:49:47.571Z,16.26
2022-10-22T16:50:47.949Z,16.24
2022-10-22T16:51:48.281Z,16.26
2022-10-22T16:52:48.670Z,16.24
2022-10-22T16:53:49.021Z,16.20
2022-10-22T16:54:49.365Z,16.20
2022-10-22T16:55:49.731Z,16.17
2022-10-22T16:56:50.110Z,16.15
2022-10-22T16:57:51.312Z,16.15
2022-10-22T16:58:50.854Z,16.12
2022-10-22T16:59:51.188Z,16.10
2022-10-22T17:00:51.570Z,16.10
2022-10-22T17:01:51.914Z,16.12
2022-10-22T17:02:52.251Z,16.10
2022-10-22T17:03:53.306Z,16.10
2022-10-22T17:04:52.930Z,16.12
2022-10-22T17:05:53.320Z,16.13
2022-10-22T17:06:53.674Z,16.16
2022-10-22T17:07:54.028Z,16.16
2022-10-22T17:08:54.477Z,16.13
2022-10-22T17:09:54.786Z,16.13
2022-10-22T17:10:55.169Z,16.13
2022-10-22T17:11:55.539Z,16.12
2022-10-22T17:12:55.932Z,16.10
2022-10-22T17:13:56.289Z,16.12
2022-10-22T17:14:56.630Z,16.12
2022-10-22T17:15:57.003Z,16.13
2022-10-22T17:16:57.393Z,16.10
2022-10-22T17:17:57.723Z,16.09
2022-10-22T17:18:58.078Z,16.08
2022-10-22T17:19:58.422Z,16.05
2022-10-22T17:20:58.800Z,16.04
2022-10-22T17:21:59.155Z,16.02
2022-10-22T17:22:59.512Z,16.01
2022-10-22T17:23:59.894Z,16.00
2022-10-22T17:25:00.236Z,16.00
2022-10-22T17:26:00.608Z,15.98
2022-10-22T17:27:01.027Z,16.00
2022-10-22T17:28:01.350Z,15.98